Time;durP1;ratioP1;P1;durP2;ratioP2;P2;SDS_P1;SDS_P2;PMS_P1;PMS_P2;Temp;Humidity;BMP_temperature;BMP_pressure;BME280_temperature;BME280_humidity;BME280_pressure;Samples;Min_cycle;Max_cycle;Signal;HPM_P1;HPM_P2
2022/02/05 00:05:24;;;;;;;7.85;1.40;;;;;;;5.50;87.41;101612.31;5103356;28;20036;-72
2022/02/05 00:08:07;;;;;;;15.15;1.80;;;;;;;5.51;87.51;101605.38;5083579;28;20042;-71
2022/02/05 00:11:03;;;;;;;12.60;1.77;;;;;;;5.49;87.81;101612.22;5099223;28;20447;-72
2022/02/05 00:16:13;;;;;;;11.23;2.35;;;;;;;5.53;87.13;101616.78;5102429;28;20036;-72
2022/02/05 00:43:05;;;;;;;15.18;1.95;;;;;;;5.32;87.70;101648.81;5095344;28;20543;-72
2022/02/05 00:45:34;;;;;;;14.02;2.10;;;;;;;5.28;88.55;101649.50;5096278;28;20107;-72
2022/02/05 00:48:01;;;;;;;16.33;1.90;;;;;;;5.24;89.55;101648.44;5094743;28;20156;-71
2022/02/05 00:50:34;;;;;;;18.20;1.77;;;;;;;5.20;89.30;101656.03;5093626;28;20538;-72
2022/02/05 00:53:48;;;;;;;11.48;1.52;;;;;;;5.16;89.28;101661.91;5079666;28;20377;-72
2022/02/05 00:55:53;;;;;;;16.05;2.08;;;;;;;5.17;89.26;101666.31;5081754;28;20089;-72
2022/02/05 00:58:18;;;;;;;16.13;1.63;;;;;;;5.19;89.15;101664.66;5100933;28;20032;-72
2022/02/05 01:00:43;;;;;;;11.95;2.22;;;;;;;5.17;88.55;101663.72;5099926;28;20038;-71
2022/02/05 01:03:08;;;;;;;11.70;1.60;;;;;;;5.17;88.08;101659.38;5098309;28;20035;-72
2022/02/05 01:05:35;;;;;;;8.40;1.38;;;;;;;5.16;88.30;101659.31;5079930;28;20048;-72
2022/02/05 01:08:00;;;;;;;9.30;1.45;;;;;;;5.19;88.62;101668.16;5096714;28;20068;-72
2022/02/05 01:10:27;;;;;;;16.92;1.77;;;;;;;5.15;89.05;101670.53;5101353;28;20050;-71
2022/02/05 01:13:07;;;;;;;9.00;2.40;;;;;;;5.13;89.34;101687.81;5082725;28;20483;-72
2022/02/05 01:15:42;;;;;;;8.00;1.42;;;;;;;5.11;90.06;101689.47;5094725;28;20046;-72
2022/02/05 01:18:10;;;;;;;8.70;1.60;;;;;;;5.15;90.04;101684.47;5082515;28;20081;-72
2022/02/05 01:21:00;;;;;;;15.55;1.75;;;;;;;5.15;90.35;101697.53;5076686;28;20059;-71
2022/02/05 01:23:39;;;;;;;5.78;1.80;;;;;;;5.19;90.97;101695.97;5101956;28;20085;-71
2022/02/05 01:26:56;;;;;;;10.70;1.73;;;;;;;5.28;90.26;101701.69;5077235;28;20089;-72
2022/02/05 01:28:58;;;;;;;12.93;1.83;;;;;;;5.21;91.42;101702.19;5096068;28;20592;-72
2022/02/05 01:31:28;;;;;;;15.32;2.17;;;;;;;5.19;91.18;101703.81;5083386;28;20035;-73
2022/02/05 01:39:19;;;;;;;10.43;1.70;;;;;;;5.14;90.59;101716.63;5093325;28;20123;-71
2022/02/05 02:11:44;;;;;;;8.20;2.15;;;;;;;5.06;92.30;101764.88;5103097;28;20398;-72
2022/02/05 02:21:40;;;;;;;10.10;1.65;;;;;;;4.99;93.30;101787.13;5101500;28;20048;-72
2022/02/05 02:24:13;;;;;;;11.63;1.73;;;;;;;5.00;93.27;101786.28;5102757;28;20024;-71
2022/02/05 02:29:28;;;;;;;15.43;2.13;;;;;;;4.95;93.97;101793.00;5110656;28;20043;-72
2022/02/05 02:31:55;;;;;;;12.00;2.42;;;;;;;4.97;94.05;101793.97;5083173;28;20024;-71
2022/02/05 02:34:27;;;;;;;10.68;1.85;;;;;;;4.95;94.40;101800.81;5080238;28;20035;-72
2022/02/05 02:36:56;;;;;;;11.43;1.95;;;;;;;4.98;94.44;101800.97;5096525;28;20032;-72
2022/02/05 02:39:28;;;;;;;12.68;1.80;;;;;;;4.99;94.14;101797.56;5103297;28;20035;-72
2022/02/05 02:42:00;;;;;;;11.52;2.33;;;;;;;4.96;93.72;101793.88;5083629;28;20022;-72
2022/02/05 02:44:25;;;;;;;13.20;1.80;;;;;;;4.96;93.11;101804.31;5101703;28;21561;-72
2022/02/05 02:46:51;;;;;;;13.63;1.80;;;;;;;4.96;92.73;101799.97;5085283;28;20105;-72
2022/02/05 02:49:22;;;;;;;12.02;2.08;;;;;;;4.96;92.91;101796.50;5078419;28;20407;-72
2022/02/05 02:57:29;;;;;;;11.00;2.00;;;;;;;4.85;93.90;101807.22;5097350;28;20051;-72
2022/02/05 02:59:59;;;;;;;19.38;2.10;;;;;;;4.82;94.56;101811.38;5097098;28;20031;-72
2022/02/05 03:02:26;;;;;;;13.35;1.77;;;;;;;4.84;94.73;101815.88;5083972;28;20110;-72
2022/02/05 03:04:53;;;;;;;15.82;1.85;;;;;;;4.84;95.35;101820.19;5103146;28;20479;-72
2022/02/05 03:07:20;;;;;;;9.98;1.83;;;;;;;4.81;95.27;101825.22;5099776;28;20032;-72
2022/02/05 03:09:46;;;;;;;14.98;2.50;;;;;;;4.88;94.91;101832.56;5101618;28;20080;-71
2022/02/05 03:12:12;;;;;;;10.25;2.13;;;;;;;4.92;94.92;101831.94;5097669;28;20020;-72
2022/02/05 03:14:37;;;;;;;8.75;1.70;;;;;;;4.97;94.99;101843.53;5086680;28;21743;-72
2022/02/05 03:17:14;;;;;;;14.07;2.33;;;;;;;4.96;94.92;101839.09;5103663;28;20772;-71
2022/02/05 03:19:40;;;;;;;7.18;2.53;;;;;;;4.98;95.66;101840.09;5111803;28;20470;-71
2022/02/05 03:22:05;;;;;;;14.95;2.75;;;;;;;4.98;95.52;101839.19;5077765;28;20023;-71
2022/02/05 03:24:31;;;;;;;15.52;1.88;;;;;;;4.92;95.70;101834.53;5101586;28;20483;-71
2022/02/05 03:26:56;;;;;;;14.50;1.83;;;;;;;4.90;96.39;101847.50;5099052;27;20512;-71
2022/02/05 03:29:21;;;;;;;9.88;2.28;;;;;;;4.87;96.06;101835.97;5099292;27;20043;-71
2022/02/05 03:31:46;;;;;;;15.30;2.30;;;;;;;4.87;96.41;101838.59;5105475;28;20016;-72
2022/02/05 03:34:12;;;;;;;13.60;2.42;;;;;;;4.85;96.56;101840.22;5101116;28;20039;-72
2022/02/05 03:36:40;;;;;;;12.43;2.08;;;;;;;4.87;96.75;101843.81;5098389;28;20031;-71
2022/02/05 03:39:05;;;;;;;16.08;2.10;;;;;;;4.86;96.62;101847.25;5110704;28;20094;-72
2022/02/05 03:41:31;;;;;;;14.40;2.00;;;;;;;4.86;97.03;101844.66;5097346;28;20151;-72
2022/02/05 03:43:56;;;;;;;16.30;3.35;;;;;;;4.82;97.30;101853.09;5104365;28;20023;-72
2022/02/05 03:46:21;;;;;;;13.23;1.75;;;;;;;4.75;98.03;101853.56;5095454;28;20047;-72
2022/02/05 03:48:47;;;;;;;11.27;1.90;;;;;;;4.78;97.09;101862.47;5106025;28;20384;-71
2022/02/05 03:51:12;;;;;;;12.70;1.95;;;;;;;4.77;96.55;101854.56;5097148;28;20119;-72
2022/02/05 03:53:37;;;;;;;12.32;2.13;;;;;;;4.73;96.90;101853.47;5095801;28;20055;-71
2022/02/05 03:56:03;;;;;;;8.52;1.67;;;;;;;4.72;96.94;101862.09;5098834;28;20122;-72
2022/02/05 03:58:28;;;;;;;18.00;2.47;;;;;;;4.70;96.95;101864.63;5099378;28;20868;-71
2022/02/05 04:00:54;;;;;;;16.10;2.70;;;;;;;4.69;97.07;101865.44;5102088;28;20968;-72
2022/02/05 04:03:19;;;;;;;11.10;2.35;;;;;;;4.73;96.73;101863.91;5103318;28;20036;-71
2022/02/05 04:05:44;;;;;;;13.95;2.03;;;;;;;4.68;96.62;101868.88;5097569;28;20107;-72
2022/02/05 04:08:12;;;;;;;16.67;3.08;;;;;;;4.73;96.31;101875.25;5109141;28;20093;-72
2022/02/05 04:10:47;;;;;;;8.75;2.30;;;;;;;4.72;96.27;101889.09;5101816;28;20027;-72
2022/02/05 04:16:21;;;;;;;16.23;2.25;;;;;;;4.68;96.20;101881.91;5097988;28;20038;-72
2022/02/05 04:18:46;;;;;;;14.55;1.85;;;;;;;4.70;95.60;101889.81;5100587;28;20387;-72
2022/02/05 04:21:11;;;;;;;8.80;1.90;;;;;;;4.72;95.80;101889.09;5095016;28;20024;-74
2022/02/05 04:23:38;;;;;;;16.60;2.22;;;;;;;4.69;96.39;101899.34;5098808;28;20024;-71
2022/02/05 04:26:04;;;;;;;10.82;1.52;;;;;;;4.71;95.73;101896.81;5097866;28;20032;-71
2022/02/05 04:28:29;;;;;;;14.82;1.92;;;;;;;4.69;95.59;101893.22;5087879;28;20364;-71
2022/02/05 04:30:54;;;;;;;16.98;2.33;;;;;;;4.70;95.02;101895.91;5083347;28;20428;-72
2022/02/05 04:33:20;;;;;;;7.47;1.50;;;;;;;4.71;95.86;101902.94;5102606;28;20081;-71
2022/02/05 04:35:45;;;;;;;12.23;2.17;;;;;;;4.69;96.54;101898.44;5082797;28;20043;-72
2022/02/05 04:38:11;;;;;;;12.30;2.25;;;;;;;4.70;96.21;101906.34;5100305;28;20016;-71
2022/02/05 04:40:43;;;;;;;7.97;1.65;;;;;;;4.71;96.84;101908.13;5098967;28;20368;-71
2022/02/05 04:43:34;;;;;;;16.83;2.13;;;;;;;4.70;96.60;101911.56;5099208;28;20042;-73
2022/02/05 05:02:11;;;;;;;14.40;1.67;;;;;;;4.73;98.13;101906.53;5105278;28;20074;-72
2022/02/05 05:04:25;;;;;;;11.07;3.05;;;;;;;4.70;98.07;101921.97;5096864;28;20035;-72
2022/02/05 05:20:19;;;;;;;11.00;1.50;;;;;;;4.57;97.20;101937.72;5097839;28;20260;-71
2022/02/05 05:22:45;;;;;;;11.32;1.67;;;;;;;4.51;96.99;101933.03;5094413;28;20020;-72
2022/02/05 05:25:10;;;;;;;20.80;2.85;;;;;;;4.52;97.20;101926.16;5101039;28;20507;-72
2022/02/05 05:27:37;;;;;;;10.07;1.35;;;;;;;4.50;96.78;101922.53;5078242;28;20445;-71
2022/02/05 05:30:04;;;;;;;13.80;1.88;;;;;;;4.47;96.97;101922.38;5093267;28;20460;-71
2022/02/05 05:32:29;;;;;;;17.70;1.92;;;;;;;4.47;96.61;101927.56;5094370;28;20028;-71
2022/02/05 05:34:54;;;;;;;11.38;1.63;;;;;;;4.47;96.74;101925.84;5099924;28;20068;-71
2022/02/05 05:37:21;;;;;;;9.13;1.50;;;;;;;4.51;96.14;101930.44;5102790;28;20034;-71
2022/02/05 05:39:48;;;;;;;15.60;2.03;;;;;;;4.51;96.27;101934.75;5083318;28;20044;-71
2022/02/05 05:42:19;;;;;;;10.07;2.00;;;;;;;4.49;96.76;101931.16;5083542;28;20039;-71
2022/02/05 05:47:17;;;;;;;9.77;1.92;;;;;;;4.52;95.93;101936.56;5101947;28;20042;-70
2022/02/05 05:52:11;;;;;;;11.38;2.00;;;;;;;4.47;96.88;101943.22;5081554;28;20052;-72
2022/02/05 05:54:36;;;;;;;7.70;1.60;;;;;;;4.45;97.04;101944.81;5061400;28;20047;-71
2022/02/05 05:57:03;;;;;;;7.88;1.60;;;;;;;4.42;97.28;101932.50;5083900;28;20543;-71
2022/02/05 05:59:29;;;;;;;11.30;2.08;;;;;;;4.44;97.01;101941.31;5087040;28;20376;-72
2022/02/05 06:01:54;;;;;;;12.65;1.75;;;;;;;4.45;97.01;101944.81;5050076;28;20066;-71
2022/02/05 06:04:19;;;;;;;6.30;1.75;;;;;;;4.43;97.25;101938.63;5084918;28;20066;-71
2022/02/05 06:06:44;;;;;;;10.32;1.95;;;;;;;4.39;96.83;101930.63;5083203;28;20032;-72
2022/02/05 06:09:10;;;;;;;12.48;2.10;;;;;;;4.44;97.23;101933.50;5076222;28;20074;-72
2022/02/05 06:11:35;;;;;;;19.08;2.25;;;;;;;4.45;96.83;101931.78;5088224;28;20506;-71
2022/02/05 06:14:00;;;;;;;9.40;2.03;;;;;;;4.41;97.22;101935.94;5076107;28;20036;-71
2022/02/05 06:16:31;;;;;;;9.48;1.75;;;;;;;4.41;97.32;101946.34;5075368;28;20040;-72
2022/02/05 06:18:57;;;;;;;10.35;2.20;;;;;;;4.36;97.97;101947.78;5082383;28;20069;-73
2022/02/05 06:21:22;;;;;;;16.27;2.65;;;;;;;4.36;98.68;101951.28;5065044;28;20024;-71
2022/02/05 06:23:48;;;;;;;18.15;2.20;;;;;;;4.35;98.43;101959.00;5075828;28;20030;-71
2022/02/05 06:26:13;;;;;;;11.48;1.70;;;;;;;4.29;99.49;101962.16;5080248;28;20024;-72
2022/02/05 06:28:38;;;;;;;17.58;1.80;;;;;;;4.32;99.10;101957.13;5067141;28;20105;-72
2022/02/05 06:31:04;;;;;;;14.48;1.80;;;;;;;4.35;98.74;101954.72;5065180;28;20139;-71
2022/02/05 06:33:29;;;;;;;16.90;2.03;;;;;;;4.34;99.52;101952.91;5083489;28;20025;-72
2022/02/05 06:35:55;;;;;;;11.43;1.90;;;;;;;4.39;98.69;101954.09;5087205;28;20024;-72
2022/02/05 06:38:20;;;;;;;18.52;2.47;;;;;;;4.41;99.05;101953.25;5088119;28;20025;-71
2022/02/05 06:40:45;;;;;;;18.58;2.30;;;;;;;4.44;98.40;101956.06;5065226;28;20086;-71
2022/02/05 06:43:12;;;;;;;12.32;2.00;;;;;;;4.45;98.83;101960.44;5070732;28;20020;-71
2022/02/05 06:45:37;;;;;;;12.98;2.22;;;;;;;4.45;98.22;101961.38;5082099;28;20111;-70
2022/02/05 06:48:04;;;;;;;15.98;2.50;;;;;;;4.48;98.05;101966.75;5060470;28;20433;-72
2022/02/05 06:50:29;;;;;;;15.63;2.33;;;;;;;4.54;97.65;101971.44;5089206;28;20048;-72
2022/02/05 06:52:54;;;;;;;9.45;2.15;;;;;;;4.56;97.76;101967.22;5098442;28;20035;-72
2022/02/05 06:55:20;;;;;;;11.13;2.33;;;;;;;4.56;97.47;101970.72;5099971;28;20027;-71
2022/02/05 06:57:45;;;;;;;17.58;2.53;;;;;;;4.63;97.49;101976.31;5100032;28;20551;-72
2022/02/05 07:00:11;;;;;;;10.38;1.67;;;;;;;4.63;97.44;101976.31;5096269;28;20081;-71
2022/02/05 07:02:42;;;;;;;12.82;2.08;;;;;;;4.63;97.31;101982.41;5100379;28;20028;-72
2022/02/05 07:05:07;;;;;;;10.13;2.08;;;;;;;4.59;97.63;101988.25;5102970;28;20032;-70
2022/02/05 07:07:32;;;;;;;11.65;1.83;;;;;;;4.61;98.04;101989.22;5090485;28;20084;-71
2022/02/05 07:09:58;;;;;;;21.35;2.50;;;;;;;4.58;98.25;101989.03;5108079;28;20028;-72
2022/02/05 07:12:23;;;;;;;16.20;2.00;;;;;;;4.56;98.68;101991.56;5097591;28;20023;-71
2022/02/05 07:18:02;;;;;;;;;;;;;;;4.57;98.48;102000.28;5089257;28;20028;-72
2022/02/05 07:20:52;;;;;;;10.43;1.83;;;;;;;4.57;97.82;102002.88;5080863;28;19919;-72
2022/02/05 07:31:16;;;;;;;12.15;2.20;;;;;;;4.57;98.42;102018.53;5100645;28;20062;-71
2022/02/05 07:33:42;;;;;;;25.88;2.70;;;;;;;4.53;98.65;102017.47;5100653;28;20031;-72
2022/02/05 07:36:07;;;;;;;13.60;1.73;;;;;;;4.52;98.39;102010.44;5085062;28;20024;-72
2022/02/05 07:38:33;;;;;;;13.40;2.22;;;;;;;4.50;98.62;102026.78;5096923;28;20032;-71
2022/02/05 07:40:58;;;;;;;16.83;2.28;;;;;;;4.49;98.63;102025.91;5098968;28;20028;-72
2022/02/05 07:43:29;;;;;;;16.60;2.17;;;;;;;4.50;98.93;102032.91;5108990;28;20028;-71
2022/02/05 07:45:55;;;;;;;14.35;2.47;;;;;;;4.48;99.37;102029.31;5102070;28;20042;-71
2022/02/05 07:48:21;;;;;;;11.88;1.77;;;;;;;4.48;99.77;102024.09;5102199;28;20058;-71
2022/02/05 07:50:47;;;;;;;16.27;2.17;;;;;;;4.50;99.38;102027.72;5095694;28;20040;-71
2022/02/05 07:53:12;;;;;;;14.73;2.20;;;;;;;4.52;99.18;102022.59;5097859;28;20096;-72
2022/02/05 07:55:37;;;;;;;11.55;1.75;;;;;;;4.53;99.32;102013.94;5104964;28;20111;-71
2022/02/05 07:58:03;;;;;;;14.10;2.08;;;;;;;4.54;98.98;102013.13;5098138;28;20024;-72
2022/02/05 08:00:28;;;;;;;11.98;2.00;;;;;;;4.63;99.43;102012.81;5090229;28;20051;-72
2022/02/05 08:02:57;;;;;;;9.73;2.20;;;;;;;4.59;99.09;102016.91;5078690;28;20455;-72
2022/02/05 08:05:22;;;;;;;13.57;3.10;;;;;;;4.63;99.60;102018.00;5101322;28;20430;-72
2022/02/05 08:07:48;;;;;;;9.40;2.22;;;;;;;4.63;99.14;102013.69;5095088;28;20053;-71
2022/02/05 08:10:14;;;;;;;18.20;3.15;;;;;;;4.64;98.79;102015.50;5103948;28;20028;-72
2022/02/05 08:12:42;;;;;;;14.63;2.47;;;;;;;4.66;98.67;102003.44;5081479;28;20094;-72
2022/02/05 08:15:08;;;;;;;5.47;1.55;;;;;;;4.72;98.35;102014.25;5082418;28;20028;-72
2022/02/05 08:17:36;;;;;;;18.23;2.05;;;;;;;4.77;98.75;102011.00;5083465;28;20490;-71
2022/02/05 08:20:01;;;;;;;14.65;2.03;;;;;;;4.81;97.38;102012.97;5105384;28;20043;-71
2022/02/05 08:22:27;;;;;;;6.53;1.60;;;;;;;4.87;97.30;102015.94;5083082;28;20036;-71
2022/02/05 08:24:53;;;;;;;14.18;1.70;;;;;;;4.95;97.02;102006.88;5099920;28;20125;-72
2022/02/05 08:27:18;;;;;;;16.08;2.33;;;;;;;5.00;96.34;102012.34;5105144;28;20123;-69
2022/02/05 08:30:07;;;;;;;15.02;1.92;;;;;;;5.07;96.38;102011.88;5101706;28;20074;-70
2022/02/05 08:32:32;;;;;;;17.35;2.00;;;;;;;5.14;95.40;102015.75;5102864;28;20036;-69
2022/02/05 08:35:01;;;;;;;18.52;2.20;;;;;;;5.17;95.38;102023.78;5098835;28;20026;-70
2022/02/05 08:37:28;;;;;;;17.08;2.25;;;;;;;5.24;94.67;102028.53;5090427;28;20379;-70
2022/02/05 08:39:53;;;;;;;15.45;2.20;;;;;;;5.24;94.79;102029.41;5105201;28;20024;-68
2022/02/05 08:42:19;;;;;;;17.10;2.35;;;;;;;5.23;95.20;102029.31;5102803;28;20084;-69
2022/02/05 08:44:44;;;;;;;21.13;2.45;;;;;;;5.28;95.63;102045.25;5082645;28;20087;-68
2022/02/05 08:47:10;;;;;;;10.00;1.55;;;;;;;5.33;95.03;102052.53;5098779;28;20020;-70
2022/02/05 08:49:35;;;;;;;10.93;2.08;;;;;;;5.35;95.42;102055.22;5096792;28;20059;-69
2022/02/05 08:52:03;;;;;;;19.83;2.00;;;;;;;5.37;95.31;102049.28;5099998;28;20552;-69
2022/02/05 08:54:31;;;;;;;16.15;1.90;;;;;;;5.46;94.96;102063.69;5086419;28;20096;-70
2022/02/05 08:56:56;;;;;;;15.35;2.13;;;;;;;5.50;94.61;102070.88;5086474;28;20015;-69
2022/02/05 08:59:23;;;;;;;10.32;1.70;;;;;;;5.51;94.06;102077.91;5106258;28;20106;-69
2022/02/05 09:01:56;;;;;;;20.05;2.55;;;;;;;5.61;94.30;102069.75;5108670;28;20035;-69
2022/02/05 09:04:35;;;;;;;11.30;1.80;;;;;;;5.70;93.51;102093.78;5104226;28;20471;-68
2022/02/05 09:07:00;;;;;;;12.93;2.25;;;;;;;5.83;92.84;102078.81;5081249;28;20024;-71
2022/02/05 09:12:03;;;;;;;17.08;2.55;;;;;;;5.91;92.36;102070.59;5108493;27;20065;-69
2022/02/05 09:14:33;;;;;;;6.05;1.50;;;;;;;6.06;91.88;102074.88;5100729;27;20054;-69
2022/02/05 09:16:59;;;;;;;11.57;1.63;;;;;;;6.21;90.44;102056.53;5098323;27;20114;-69
2022/02/05 09:19:25;;;;;;;11.15;2.00;;;;;;;6.48;90.23;102058.81;5100537;27;20102;-69
2022/02/05 09:21:50;;;;;;;13.55;2.33;;;;;;;6.68;87.33;102052.03;5087589;28;20114;-68
2022/02/05 09:24:16;;;;;;;10.52;1.92;;;;;;;6.89;86.42;102046.97;5102458;28;20450;-69
2022/02/05 09:26:44;;;;;;;16.65;2.13;;;;;;;7.01;85.68;102047.63;5092637;28;20527;-69
2022/02/05 09:29:20;;;;;;;13.10;1.63;;;;;;;7.12;85.92;102057.72;5102465;28;20468;-69
2022/02/05 09:31:46;;;;;;;20.70;2.47;;;;;;;7.31;84.30;102047.38;5076564;28;20024;-69
2022/02/05 09:34:12;;;;;;;10.50;1.75;;;;;;;7.38;83.56;102038.06;5099823;28;20070;-69
2022/02/05 09:36:39;;;;;;;12.57;2.60;;;;;;;7.33;83.26;102047.44;5102424;28;20047;-69
2022/02/05 09:39:06;;;;;;;13.68;2.25;;;;;;;7.04;83.66;102031.16;5078054;28;20024;-69
2022/02/05 09:41:32;;;;;;;14.68;1.85;;;;;;;7.16;84.31;102033.50;5098942;28;20037;-70
2022/02/05 09:43:57;;;;;;;16.38;1.85;;;;;;;7.30;83.67;102024.63;5099027;28;20573;-69
2022/02/05 09:46:23;;;;;;;17.13;1.98;;;;;;;7.41;82.40;102027.75;5099020;28;20392;-69
2022/02/05 09:48:49;;;;;;;14.05;2.15;;;;;;;7.38;83.09;102027.59;5103714;28;20457;-70
2022/02/05 09:51:21;;;;;;;10.35;1.88;;;;;;;7.68;82.36;102028.19;5087154;28;20040;-69
2022/02/05 09:53:51;;;;;;;14.80;2.25;;;;;;;7.84;81.76;102027.19;5092413;28;20063;-69
2022/02/05 09:56:18;;;;;;;17.75;2.15;;;;;;;7.73;80.89;102034.53;5108195;28;20059;-70
2022/02/05 09:58:44;;;;;;;12.13;2.13;;;;;;;7.75;80.92;102030.25;5099017;28;20038;-68
2022/02/05 10:01:17;;;;;;;14.45;1.77;;;;;;;7.75;81.38;102032.88;5092137;28;20035;-69
2022/02/05 10:03:45;;;;;;;11.25;2.10;;;;;;;7.87;81.01;102021.19;5101192;28;20091;-70
2022/02/05 10:06:17;;;;;;;10.07;1.63;;;;;;;7.80;80.52;102035.72;5114688;28;20157;-69
2022/02/05 10:08:55;;;;;;;11.57;1.92;;;;;;;7.79;79.41;102014.72;5112044;28;20056;-70
2022/02/05 10:11:20;;;;;;;10.90;1.70;;;;;;;8.04;79.28;102022.84;5112207;28;20028;-69
2022/02/05 10:13:46;;;;;;;11.85;1.95;;;;;;;8.46;78.71;102016.88;5109791;28;20027;-68
2022/02/05 10:16:12;;;;;;;9.60;1.80;;;;;;;8.49;77.14;102014.41;5097899;28;20073;-69
2022/02/05 10:18:43;;;;;;;12.30;1.80;;;;;;;8.31;78.18;102014.44;5098875;28;20032;-69
2022/02/05 10:21:18;;;;;;;19.30;2.80;;;;;;;8.34;76.29;102008.44;5103369;28;20031;-69
2022/02/05 10:23:57;;;;;;;11.50;2.63;;;;;;;8.47;75.99;102002.06;5096288;28;20361;-69
2022/02/05 10:26:36;;;;;;;10.73;1.88;;;;;;;8.55;76.62;102011.16;5099991;28;20042;-69
2022/02/05 10:29:04;;;;;;;11.43;2.17;;;;;;;8.42;76.11;102014.91;5100914;28;20019;-69
2022/02/05 10:31:50;;;;;;;8.98;1.60;;;;;;;8.32;77.46;102018.88;5105074;27;20061;-69
2022/02/05 10:34:16;;;;;;;20.58;2.13;;;;;;;8.38;77.48;102023.47;5102469;28;20107;-71
2022/02/05 10:36:42;;;;;;;24.92;2.53;;;;;;;8.21;78.41;102021.00;5106765;28;20169;-68
2022/02/05 10:39:14;;;;;;;10.75;1.60;;;;;;;8.07;79.17;102019.47;5098128;28;20028;-68
2022/02/05 10:44:28;;;;;;;16.50;2.95;;;;;;;8.52;77.89;102005.75;5105355;28;20439;-69
2022/02/05 10:46:55;;;;;;;18.23;2.35;;;;;;;8.41;77.31;102008.78;5106243;28;20459;-68
2022/02/05 10:49:49;;;;;;;15.27;2.15;;;;;;;8.46;76.88;102021.25;5107271;28;20498;-69
2022/02/05 10:52:31;;;;;;;15.70;2.25;;;;;;;8.50;75.67;102012.69;5111907;28;20035;-69
2022/02/05 10:55:46;;;;;;;16.88;3.05;;;;;;;8.63;77.58;102014.09;5100822;28;20028;-70
2022/02/05 10:58:08;;;;;;;8.93;2.58;;;;;;;8.94;75.20;102005.84;5091351;28;20040;-70
2022/02/05 11:05:51;;;;;;;15.00;2.63;;;;;;;10.11;71.01;102005.16;5103074;27;20059;-69
2022/02/05 11:08:19;;;;;;;10.02;1.85;;;;;;;10.42;71.23;101998.44;5103406;27;20130;-70
2022/02/05 11:18:58;;;;;;;11.25;2.88;;;;;;;9.51;71.70;101983.56;5099824;28;20050;-68
2022/02/05 11:21:26;;;;;;;12.68;1.98;;;;;;;10.10;70.79;102006.00;5099467;28;20056;-69
2022/02/05 11:23:55;;;;;;;11.85;2.55;;;;;;;10.31;69.81;101989.25;5102972;27;20040;-69
2022/02/05 11:26:22;;;;;;;11.52;2.03;;;;;;;10.16;70.44;101988.66;5108264;27;20491;-69
2022/02/05 11:28:52;;;;;;;12.60;2.28;;;;;;;10.78;70.98;101976.88;5112193;27;20027;-68
2022/02/05 11:31:36;;;;;;;15.30;2.35;;;;;;;11.51;68.50;101971.28;5098961;27;20028;-70
2022/02/05 11:34:15;;;;;;;9.57;1.98;;;;;;;11.68;66.02;101963.91;5095358;28;20514;-68
2022/02/05 11:36:45;;;;;;;11.80;2.15;;;;;;;11.84;65.49;101945.91;5106756;27;20053;-70
2022/02/05 11:39:17;;;;;;;9.48;1.98;;;;;;;11.90;66.18;101952.25;5102728;27;20506;-69
2022/02/05 11:41:44;;;;;;;9.85;2.28;;;;;;;11.68;64.83;101966.56;5101942;27;20528;-73
2022/02/05 11:44:22;;;;;;;10.38;1.77;;;;;;;11.87;65.19;101967.06;5098655;28;20134;-72
2022/02/05 11:47:06;;;;;;;13.77;2.35;;;;;;;11.67;64.15;101954.22;5099656;28;20119;-72
2022/02/05 11:49:53;;;;;;;16.63;1.95;;;;;;;10.50;66.99;101958.31;5104163;28;20030;-69
2022/02/05 11:52:40;;;;;;;11.27;2.50;;;;;;;10.17;68.67;101961.53;5106174;28;20378;-71
2022/02/05 11:55:14;;;;;;;17.40;2.88;;;;;;;10.08;70.35;101967.38;5105407;28;20024;-70
2022/02/05 11:57:56;;;;;;;11.70;2.35;;;;;;;10.34;69.68;101959.50;5107480;28;20058;-71
2022/02/05 12:00:31;;;;;;;7.40;1.83;;;;;;;9.76;70.32;101960.03;5103920;28;20028;-70
2022/02/05 12:03:02;;;;;;;16.05;2.35;;;;;;;9.36;72.07;101953.25;5099302;28;20082;-70
2022/02/05 12:05:32;;;;;;;10.80;2.72;;;;;;;9.62;71.23;101945.50;5096014;28;20024;-70
2022/02/05 12:08:22;;;;;;;11.05;1.92;;;;;;;9.84;71.24;101946.31;5094118;28;20395;-71
2022/02/05 12:10:51;;;;;;;13.43;2.10;;;;;;;10.53;69.64;101934.78;5076886;28;20038;-71
2022/02/05 12:13:22;;;;;;;10.77;2.28;;;;;;;10.82;69.48;101937.47;5093968;28;20035;-72
2022/02/05 12:16:10;;;;;;;10.27;2.25;;;;;;;11.55;67.63;101916.94;5100757;28;20023;-72
2022/02/05 12:19:12;;;;;;;13.32;2.10;;;;;;;12.04;66.32;101923.66;5093301;28;20036;-71
2022/02/05 12:21:55;;;;;;;11.15;2.03;;;;;;;12.30;65.18;101912.91;5084499;28;20483;-70
2022/02/05 12:24:42;;;;;;;9.20;1.92;;;;;;;12.14;64.99;101907.22;5110856;28;20505;-71
2022/02/05 12:27:33;;;;;;;10.90;1.90;;;;;;;11.05;67.59;101915.41;5100378;28;20387;-71
2022/02/05 12:30:26;;;;;;;14.25;2.50;;;;;;;10.68;70.32;101926.50;5086234;28;20019;-71
2022/02/05 12:32:55;;;;;;;11.77;2.03;;;;;;;10.75;70.17;101913.56;5106300;28;20032;-70
2022/02/05 12:35:21;;;;;;;15.07;2.55;;;;;;;10.48;70.81;101910.03;5095234;28;20309;-71
2022/02/05 12:37:46;;;;;;;11.55;2.65;;;;;;;10.08;71.80;101915.66;5093554;28;20099;-71
2022/02/05 12:40:11;;;;;;;14.95;2.42;;;;;;;9.90;72.53;101915.88;5075973;28;20040;-69
2022/02/05 12:42:39;;;;;;;13.35;1.63;;;;;;;9.69;72.90;101913.34;5096416;28;20024;-71
2022/02/05 12:45:07;;;;;;;10.68;2.58;;;;;;;10.18;72.79;101916.84;5094506;28;20077;-69
2022/02/05 12:47:38;;;;;;;16.38;2.50;;;;;;;10.44;71.79;101902.03;5103978;28;20091;-69
2022/02/05 12:50:09;;;;;;;19.20;2.22;;;;;;;10.10;73.18;101908.69;5075468;28;20155;-69
2022/02/05 12:52:36;;;;;;;14.02;2.47;;;;;;;9.78;74.33;101911.06;5093994;28;20032;-69
2022/02/05 12:55:02;;;;;;;16.33;2.20;;;;;;;9.40;76.11;101915.75;5105286;28;20020;-67
2022/02/05 12:57:29;;;;;;;10.65;2.75;;;;;;;9.20;76.29;101911.47;5080859;28;20027;-69
2022/02/05 12:59:55;;;;;;;13.63;1.67;;;;;;;9.17;77.26;101899.13;5100804;28;20096;-68
2022/02/05 13:02:24;;;;;;;17.02;2.20;;;;;;;8.89;77.11;101899.75;5100649;28;20024;-69
2022/02/05 13:04:55;;;;;;;12.75;2.33;;;;;;;8.37;79.15;101912.44;5097840;28;20105;-70
2022/02/05 13:07:25;;;;;;;11.50;2.05;;;;;;;9.05;77.39;101896.88;5104725;28;20031;-70
2022/02/05 13:10:05;;;;;;;13.15;2.28;;;;;;;9.95;74.31;101887.13;5097863;28;20076;-70
2022/02/05 13:12:42;;;;;;;18.30;2.50;;;;;;;10.61;72.01;101872.75;5098821;28;20076;-69
2022/02/05 13:15:19;;;;;;;9.32;1.90;;;;;;;10.74;69.25;101851.25;5100946;28;20034;-70
2022/02/05 13:28:33;;;;;;;11.90;2.67;;;;;;;10.09;73.20;101862.22;5101131;28;20035;-69
2022/02/05 13:33:54;;;;;;;;;;;;;;;10.22;72.49;101845.09;5106470;28;20074;-70
2022/02/05 13:36:37;;;;;;;11.43;2.50;;;;;;;10.06;72.52;101830.53;5094056;28;19916;-69
2022/02/05 13:39:16;;;;;;;16.60;1.88;;;;;;;10.28;73.19;101833.88;5103426;28;20031;-68
2022/02/05 13:44:39;;;;;;;14.40;2.10;;;;;;;10.05;73.91;101836.66;5097618;28;20043;-70
2022/02/05 13:47:10;;;;;;;14.18;2.05;;;;;;;10.90;71.86;101835.94;5112253;28;20032;-70
2022/02/05 13:49:35;;;;;;;13.70;2.78;;;;;;;11.08;70.53;101831.25;5095213;28;20024;-70
2022/02/05 13:52:13;;;;;;;14.38;2.25;;;;;;;11.01;69.54;101815.19;5079740;28;20044;-69
2022/02/05 13:54:41;;;;;;;12.55;2.50;;;;;;;11.37;70.04;101807.50;5080966;28;20032;-71
2022/02/05 13:57:11;;;;;;;8.35;1.95;;;;;;;10.67;70.79;101801.88;5085039;28;20771;-72
2022/02/05 13:59:36;;;;;;;11.70;2.08;;;;;;;10.38;72.83;101814.09;5054439;28;20373;-71
2022/02/05 14:02:15;;;;;;;17.58;2.30;;;;;;;10.26;73.67;101832.97;5085423;28;20043;-70
2022/02/05 14:04:41;;;;;;;14.40;1.90;;;;;;;9.88;75.76;101827.28;5074142;28;20035;-69
2022/02/05 14:07:07;;;;;;;16.60;2.20;;;;;;;9.98;74.85;101824.09;5085774;28;20016;-70
2022/02/05 14:09:34;;;;;;;13.52;2.25;;;;;;;9.61;76.89;101828.06;5085790;28;20522;-70
2022/02/05 14:12:17;;;;;;;12.30;1.95;;;;;;;9.18;78.63;101810.72;5099836;28;20081;-70
2022/02/05 14:14:43;;;;;;;16.23;2.50;;;;;;;9.03;79.96;101826.78;5083940;28;20028;-68
2022/02/05 14:17:17;;;;;;;16.85;2.47;;;;;;;9.06;79.51;101822.56;5077617;28;20081;-70
2022/02/05 14:19:42;;;;;;;13.20;3.15;;;;;;;9.23;79.97;101835.44;5078828;28;20495;-69
2022/02/05 14:22:25;;;;;;;13.63;2.88;;;;;;;9.26;79.79;101818.06;5087576;28;20047;-69
2022/02/05 14:25:31;;;;;;;18.70;2.88;;;;;;;9.22;80.40;101817.88;5064529;28;20391;-70